Time;durP1;ratioP1;P1;durP2;ratioP2;P2;SDS_P1;SDS_P2;PMS_P1;PMS_P2;Temp;Humidity;BMP_temperature;BMP_pressure;BME280_temperature;BME280_humidity;BME280_pressure;Samples;Min_cycle;Max_cycle;Signal;HPM_P1;HPM_P2
2024/02/14 00:01:55;;;;;;;13.18;6.15;;;7.20;99.90;;;;;;5057098;28;20496;-73
2024/02/14 00:04:21;;;;;;;13.73;6.30;;;7.10;99.90;;;;;;5057280;28;20392;-73
2024/02/14 00:06:47;;;;;;;13.15;6.20;;;7.20;99.90;;;;;;5075082;28;20080;-73
2024/02/14 00:09:12;;;;;;;9.60;5.88;;;7.10;99.90;;;;;;5057185;28;20037;-73
2024/02/14 00:11:38;;;;;;;10.98;5.97;;;7.20;99.90;;;;;;5040328;28;20514;-73
2024/02/14 00:14:04;;;;;;;8.68;5.75;;;7.00;99.90;;;;;;5057099;28;20047;-73
2024/02/14 00:16:32;;;;;;;9.13;6.03;;;7.10;99.90;;;;;;5057199;28;20036;-74
2024/02/14 00:18:58;;;;;;;12.07;6.45;;;7.30;99.90;;;;;;5056758;28;20037;-73
2024/02/14 00:21:26;;;;;;;8.63;6.25;;;7.20;99.90;;;;;;5040023;28;20047;-73
2024/02/14 00:23:52;;;;;;;9.95;6.60;;;7.10;99.90;;;;;;5056816;28;20051;-73
2024/02/14 00:26:18;;;;;;;10.77;6.57;;;7.20;99.90;;;;;;5056827;28;20036;-73
2024/02/14 00:28:43;;;;;;;9.07;6.03;;;7.20;99.90;;;;;;5056675;28;20086;-73
2024/02/14 00:31:09;;;;;;;11.68;5.90;;;7.30;99.90;;;;;;5074696;28;20037;-73
2024/02/14 00:33:34;;;;;;;10.77;6.80;;;7.20;99.90;;;;;;5074650;28;20078;-73
2024/02/14 00:36:00;;;;;;;9.63;6.97;;;7.10;99.90;;;;;;5073672;28;20044;-73
2024/02/14 00:38:26;;;;;;;11.68;7.25;;;7.30;99.90;;;;;;5074565;28;20487;-73
2024/02/14 00:40:51;;;;;;;9.13;6.68;;;7.30;99.90;;;;;;5073218;28;20090;-73
2024/02/14 00:43:17;;;;;;;10.25;6.95;;;7.20;99.90;;;;;;5073223;28;20041;-73
2024/02/14 00:45:42;;;;;;;11.75;7.45;;;7.30;99.90;;;;;;5056562;28;20036;-72
2024/02/14 00:48:08;;;;;;;10.88;6.75;;;7.20;99.90;;;;;;5074305;28;20040;-73
2024/02/14 00:50:34;;;;;;;11.93;7.55;;;7.40;99.90;;;;;;5056219;28;20043;-73
2024/02/14 00:53:00;;;;;;;10.40;7.13;;;7.30;99.90;;;;;;5039846;28;20123;-73
2024/02/14 00:55:26;;;;;;;10.80;7.60;;;7.30;99.90;;;;;;5056643;28;20553;-73
2024/02/14 00:57:51;;;;;;;9.23;7.47;;;7.10;99.90;;;;;;5056375;28;20500;-73
2024/02/14 01:00:18;;;;;;;12.48;7.78;;;7.40;99.90;;;;;;5056459;28;20059;-73
2024/02/14 01:02:44;;;;;;;10.05;7.05;;;7.20;99.90;;;;;;5056368;28;20055;-73
2024/02/14 01:05:10;;;;;;;10.15;8.00;;;7.20;99.90;;;;;;5056091;28;20050;-74
2024/02/14 01:07:36;;;;;;;9.63;8.23;;;7.30;99.90;;;;;;5056239;28;20044;-74
2024/02/14 01:10:02;;;;;;;11.93;7.43;;;7.20;99.90;;;;;;5055863;28;20157;-74
2024/02/14 01:12:29;;;;;;;10.43;7.10;;;7.40;99.90;;;;;;5056341;28;20593;-74
2024/02/14 01:14:55;;;;;;;10.13;7.13;;;7.20;99.90;;;;;;5056048;28;20646;-75
2024/02/14 01:17:20;;;;;;;10.45;6.88;;;7.40;99.90;;;;;;5056093;28;20052;-74
2024/02/14 01:19:46;;;;;;;9.20;7.30;;;7.20;99.90;;;;;;5055556;28;20040;-74
2024/02/14 01:22:12;;;;;;;9.45;6.75;;;7.40;99.90;;;;;;5073712;28;20404;-74
2024/02/14 01:24:37;;;;;;;7.85;6.30;;;7.30;99.90;;;;;;5073739;28;20643;-74
2024/02/14 01:27:03;;;;;;;10.88;7.63;;;7.50;99.90;;;;;;5072692;28;20439;-75
2024/02/14 01:29:29;;;;;;;9.63;7.60;;;7.30;99.90;;;;;;5039035;28;20719;-74
2024/02/14 01:31:55;;;;;;;9.07;6.50;;;7.60;99.90;;;;;;5072024;28;20562;-74
2024/02/14 01:34:21;;;;;;;8.70;6.80;;;7.30;99.90;;;;;;5055811;28;20067;-74
2024/02/14 01:36:47;;;;;;;9.00;6.40;;;7.50;99.90;;;;;;5055712;28;20516;-74
2024/02/14 01:39:13;;;;;;;10.82;7.35;;;7.40;99.90;;;;;;5055564;28;20041;-73
2024/02/14 01:41:44;;;;;;;8.73;6.80;;;7.30;99.90;;;;;;5055547;28;20532;-74
2024/02/14 01:44:10;;;;;;;7.65;6.40;;;7.50;99.90;;;;;;5055365;28;20033;-74
2024/02/14 01:46:36;;;;;;;7.60;6.20;;;7.60;99.90;;;;;;5055345;28;20532;-74
2024/02/14 01:49:02;;;;;;;10.32;6.53;;;7.40;99.90;;;;;;5055114;28;20041;-73
2024/02/14 01:51:31;;;;;;;7.07;6.10;;;7.40;99.90;;;;;;5073181;28;20123;-74
2024/02/14 01:53:58;;;;;;;9.50;6.22;;;7.40;99.90;;;;;;5055139;28;20423;-74
2024/02/14 01:56:25;;;;;;;7.68;6.00;;;7.70;99.90;;;;;;5055122;28;20051;-75
2024/02/14 01:58:52;;;;;;;6.85;5.65;;;7.60;99.90;;;;;;5054862;28;20071;-74
2024/02/14 02:01:18;;;;;;;8.75;5.55;;;7.70;99.90;;;;;;5072841;28;20111;-75
2024/02/14 02:03:44;;;;;;;7.85;5.72;;;7.50;99.90;;;;;;5071642;28;20439;-73
2024/02/14 02:06:09;;;;;;;7.47;5.45;;;7.50;99.90;;;;;;5072464;28;20089;-74
2024/02/14 02:08:35;;;;;;;6.55;5.10;;;7.50;99.90;;;;;;5038150;28;20066;-74
2024/02/14 02:11:01;;;;;;;6.80;5.15;;;7.60;99.90;;;;;;5054613;28;20045;-74
2024/02/14 02:13:27;;;;;;;6.20;5.35;;;7.60;99.90;;;;;;5054838;28;20048;-74
2024/02/14 02:15:53;;;;;;;6.80;4.85;;;7.80;99.90;;;;;;5054723;28;20033;-74
2024/02/14 02:18:19;;;;;;;5.65;4.60;;;7.80;99.90;;;;;;5054413;28;20087;-74
2024/02/14 02:20:45;;;;;;;5.40;4.57;;;7.60;99.90;;;;;;5037841;28;20459;-74
2024/02/14 02:23:14;;;;;;;5.00;4.55;;;7.60;99.90;;;;;;5054976;28;20424;-74
2024/02/14 02:25:44;;;;;;;5.40;4.70;;;7.80;99.90;;;;;;5072463;28;20044;-74
2024/02/14 02:28:09;;;;;;;7.93;4.88;;;7.60;99.90;;;;;;5054251;28;20495;-74
2024/02/14 02:30:36;;;;;;;7.93;5.10;;;7.80;99.90;;;;;;5054382;28;20033;-74
2024/02/14 02:33:02;;;;;;;6.22;4.60;;;7.90;99.90;;;;;;5071352;28;20060;-74
2024/02/14 02:35:28;;;;;;;6.15;4.88;;;7.70;99.90;;;;;;5071295;28;20039;-73
2024/02/14 02:37:54;;;;;;;6.70;5.00;;;7.70;99.90;;;;;;5072131;28;20045;-74
2024/02/14 02:40:21;;;;;;;6.00;5.00;;;7.90;99.90;;;;;;5054392;28;20047;-74
2024/02/14 02:42:47;;;;;;;5.95;5.10;;;7.80;99.90;;;;;;5072227;28;20093;-74
2024/02/14 02:45:13;;;;;;;6.28;5.40;;;8.00;99.90;;;;;;5054357;28;20032;-74
2024/02/14 02:47:39;;;;;;;6.13;5.22;;;7.90;99.90;;;;;;5071855;28;20531;-74
2024/02/14 02:50:06;;;;;;;5.60;5.00;;;7.70;99.90;;;;;;5037354;28;20086;-74
2024/02/14 02:52:31;;;;;;;7.93;5.07;;;7.70;99.90;;;;;;5054131;28;20043;-74
2024/02/14 02:54:57;;;;;;;6.05;5.03;;;7.90;99.90;;;;;;5054057;28;20040;-74
2024/02/14 02:57:23;;;;;;;5.85;4.90;;;8.00;99.90;;;;;;5071998;28;20111;-74
2024/02/14 02:59:49;;;;;;;5.47;4.40;;;8.10;99.90;;;;;;5071583;28;20039;-75
2024/02/14 03:02:15;;;;;;;6.57;5.15;;;8.10;99.90;;;;;;5053940;28;20435;-73
2024/02/14 03:04:41;;;;;;;8.25;5.35;;;7.80;99.90;;;;;;5070561;28;20162;-73
2024/02/14 03:07:08;;;;;;;6.82;4.80;;;7.90;99.90;;;;;;5053835;28;20052;-74
2024/02/14 03:09:37;;;;;;;6.03;5.00;;;7.80;99.90;;;;;;5071760;28;20040;-74
2024/02/14 03:12:03;;;;;;;5.85;5.22;;;8.00;99.90;;;;;;5053623;28;20037;-73
2024/02/14 03:14:32;;;;;;;5.18;4.40;;;7.80;99.90;;;;;;5070615;28;20048;-74
2024/02/14 03:17:00;;;;;;;8.50;4.85;;;8.10;99.90;;;;;;5053114;28;20408;-74
2024/02/14 03:19:27;;;;;;;8.63;5.28;;;7.80;99.90;;;;;;5070515;28;20041;-74
2024/02/14 03:21:53;;;;;;;6.00;4.53;;;8.20;99.90;;;;;;5071506;28;20071;-74
2024/02/14 03:24:19;;;;;;;4.45;3.90;;;8.10;99.90;;;;;;5071673;28;20048;-73
2024/02/14 03:26:45;;;;;;;6.65;4.88;;;7.90;99.90;;;;;;5070314;28;20040;-74
2024/02/14 03:29:12;;;;;;;6.60;4.95;;;8.20;99.90;;;;;;5071234;28;20048;-74
2024/02/14 03:31:38;;;;;;;5.05;4.20;;;8.20;99.90;;;;;;5053350;28;20467;-74
2024/02/14 03:34:03;;;;;;;5.95;4.32;;;8.00;99.90;;;;;;5036856;28;20068;-74
2024/02/14 03:36:30;;;;;;;6.10;4.45;;;8.20;99.90;;;;;;5071579;28;20111;-74
2024/02/14 03:38:57;;;;;;;5.22;4.20;;;8.10;99.90;;;;;;5071397;28;20044;-74
2024/02/14 03:41:23;;;;;;;6.63;4.03;;;8.00;99.90;;;;;;5071339;28;20051;-75
2024/02/14 03:43:52;;;;;;;5.43;4.22;;;8.20;99.90;;;;;;5053351;28;20411;-75
2024/02/14 03:46:21;;;;;;;6.00;3.80;;;8.10;99.90;;;;;;5053469;28;20040;-74
2024/02/14 03:48:47;;;;;;;4.47;3.70;;;8.00;99.90;;;;;;5053485;28;20111;-74
2024/02/14 03:51:13;;;;;;;5.57;3.53;;;8.00;99.90;;;;;;5053135;28;20047;-74
2024/02/14 03:53:39;;;;;;;4.78;3.40;;;8.00;99.90;;;;;;5052950;28;20093;-74
2024/02/14 03:56:07;;;;;;;5.00;3.67;;;8.10;99.90;;;;;;5086885;28;20127;-74
2024/02/14 03:58:37;;;;;;;4.38;3.38;;;8.10;99.90;;;;;;5053119;28;20101;-74
2024/02/14 04:01:05;;;;;;;3.38;2.72;;;8.10;99.90;;;;;;5053399;28;20040;-74
2024/02/14 04:03:31;;;;;;;5.72;3.28;;;8.20;99.90;;;;;;5053289;28;20040;-74
2024/02/14 04:05:57;;;;;;;4.53;3.40;;;8.30;99.90;;;;;;5053535;28;20036;-74
2024/02/14 04:08:23;;;;;;;3.92;3.00;;;8.20;99.90;;;;;;5086904;28;20131;-74
2024/02/14 04:10:54;;;;;;;3.55;2.60;;;8.20;99.90;;;;;;5070883;28;20234;-74
2024/02/14 04:13:20;;;;;;;3.90;3.17;;;8.30;99.90;;;;;;5053252;28;20125;-74
2024/02/14 04:15:47;;;;;;;4.60;2.70;;;8.30;99.90;;;;;;5053299;28;20043;-74
2024/02/14 04:18:17;;;;;;;4.82;3.38;;;8.30;99.90;;;;;;5052968;28;20045;-74
2024/02/14 04:20:43;;;;;;;4.35;3.35;;;8.30;99.90;;;;;;5071095;28;20410;-74
2024/02/14 04:23:09;;;;;;;4.97;3.72;;;8.60;99.90;;;;;;5053063;28;20056;-74
2024/02/14 04:25:35;;;;;;;4.10;3.05;;;8.50;99.90;;;;;;5053035;28;20048;-74
2024/02/14 04:28:03;;;;;;;4.75;3.83;;;8.60;99.90;;;;;;5075903;22;21055;-75
2024/02/14 04:30:28;;;;;;;4.78;3.58;;;8.40;99.90;;;;;;5073948;28;20127;-75
2024/02/14 04:32:54;;;;;;;4.45;3.20;;;8.40;99.90;;;;;;5074474;28;20115;-75
2024/02/14 04:35:20;;;;;;;5.05;3.72;;;8.70;99.90;;;;;;5074658;28;20112;-75
2024/02/14 04:37:47;;;;;;;6.38;4.13;;;8.50;99.90;;;;;;5055604;28;20028;-75
2024/02/14 04:40:14;;;;;;;5.25;3.38;;;8.50;99.90;;;;;;5054354;28;20080;-75
2024/02/14 04:42:40;;;;;;;4.78;3.50;;;8.50;99.90;;;;;;5054330;28;20072;-75
2024/02/14 04:45:06;;;;;;;4.90;3.50;;;8.80;99.90;;;;;;5054535;28;20048;-75
2024/02/14 04:47:32;;;;;;;5.47;3.25;;;8.50;99.90;;;;;;5036529;28;20098;-75
2024/02/14 04:49:58;;;;;;;4.95;3.58;;;8.50;99.90;;;;;;5054029;28;20116;-75
2024/02/14 04:52:24;;;;;;;5.43;3.33;;;8.80;99.90;;;;;;5036399;28;20534;-75
2024/02/14 04:54:49;;;;;;;4.30;3.20;;;8.60;99.90;;;;;;5054142;28;20162;-75
2024/02/14 04:57:15;;;;;;;4.57;3.28;;;8.60;99.90;;;;;;5054094;28;20029;-75
2024/02/14 04:59:41;;;;;;;4.80;3.45;;;8.70;99.90;;;;;;5054010;28;20126;-76
2024/02/14 05:02:06;;;;;;;5.32;3.47;;;8.70;99.90;;;;;;5054164;28;20122;-75
2024/02/14 05:04:35;;;;;;;4.75;3.25;;;9.10;99.90;;;;;;5036085;28;20630;-76
2024/02/14 05:07:00;;;;;;;4.95;3.58;;;8.90;99.90;;;;;;5054040;28;20047;-73
2024/02/14 05:09:26;;;;;;;5.47;3.40;;;9.00;99.90;;;;;;5036071;28;20037;-73
2024/02/14 05:11:52;;;;;;;4.45;3.25;;;9.00;99.90;;;;;;5053646;28;20059;-76
2024/02/14 05:14:17;;;;;;;5.07;3.08;;;9.00;99.90;;;;;;5036024;28;20389;-74
2024/02/14 05:16:43;;;;;;;5.03;3.60;;;9.00;99.90;;;;;;5036035;28;20112;-73
2024/02/14 05:19:09;;;;;;;4.95;3.28;;;8.90;99.90;;;;;;5053788;28;20094;-74
2024/02/14 05:21:35;;;;;;;5.80;3.58;;;8.90;99.90;;;;;;5053592;28;20041;-76
2024/02/14 05:24:01;;;;;;;4.38;3.33;;;9.20;99.90;;;;;;5053689;28;20086;-73
2024/02/14 05:26:27;;;;;;;5.45;3.92;;;9.10;99.90;;;;;;5053493;28;20071;-73
2024/02/14 05:28:52;;;;;;;5.50;2.97;;;9.10;99.90;;;;;;5053495;28;20060;-73
2024/02/14 05:31:18;;;;;;;5.50;3.88;;;8.90;99.90;;;;;;5053425;28;20047;-73
2024/02/14 05:33:43;;;;;;;5.38;3.63;;;9.00;99.90;;;;;;5035744;28;20115;-74
2024/02/14 05:36:10;;;;;;;4.78;3.53;;;9.00;99.90;;;;;;5053458;28;20116;-77
2024/02/14 05:38:35;;;;;;;6.60;4.07;;;9.00;99.90;;;;;;5019021;28;20037;-77
2024/02/14 05:41:01;;;;;;;5.85;3.47;;;9.20;99.90;;;;;;5052441;28;20040;-73
2024/02/14 05:43:27;;;;;;;4.35;3.33;;;9.10;99.90;;;;;;5035534;28;20111;-73
2024/02/14 05:45:52;;;;;;;6.88;3.78;;;9.30;99.90;;;;;;5053286;28;20037;-76
2024/02/14 05:48:19;;;;;;;5.03;3.65;;;9.20;99.90;;;;;;5053063;28;20056;-73
2024/02/14 05:50:45;;;;;;;5.47;4.28;;;9.20;99.90;;;;;;5052986;28;20044;-73
2024/02/14 05:53:12;;;;;;;5.60;3.83;;;9.20;99.90;;;;;;5035212;28;20037;-73
2024/02/14 05:55:38;;;;;;;5.97;3.97;;;9.30;99.90;;;;;;5035481;28;20044;-74
2024/02/14 05:58:04;;;;;;;5.93;4.43;;;9.20;99.90;;;;;;5053066;28;20033;-74
2024/02/14 06:00:30;;;;;;;6.70;4.47;;;9.20;99.90;;;;;;5052806;28;20043;-77
2024/02/14 06:02:56;;;;;;;6.70;4.82;;;9.10;99.90;;;;;;5035443;28;20048;-75
2024/02/14 06:05:22;;;;;;;7.43;5.28;;;9.50;99.90;;;;;;5052973;28;20052;-77
2024/02/14 06:07:47;;;;;;;7.93;5.35;;;9.20;99.90;;;;;;5052666;28;20041;-73
2024/02/14 06:10:13;;;;;;;9.30;5.07;;;9.40;99.90;;;;;;5052775;28;20124;-73
2024/02/14 06:12:43;;;;;;;9.68;5.70;;;9.50;99.90;;;;;;5053082;28;20055;-73
2024/02/14 06:15:09;;;;;;;7.70;5.32;;;9.20;99.90;;;;;;5034956;28;20033;-73
2024/02/14 06:17:35;;;;;;;8.00;5.13;;;9.20;99.90;;;;;;5052626;28;20095;-73
2024/02/14 06:20:05;;;;;;;8.85;5.30;;;9.40;99.90;;;;;;5052423;28;20041;-74
2024/02/14 06:22:32;;;;;;;8.63;5.18;;;9.50;99.90;;;;;;5052564;28;20029;-73
2024/02/14 06:24:57;;;;;;;8.75;5.25;;;9.30;99.90;;;;;;5034596;28;20041;-73
2024/02/14 06:27:24;;;;;;;9.38;5.97;;;9.30;99.90;;;;;;5052698;28;20075;-73
2024/02/14 06:29:49;;;;;;;11.23;5.93;;;9.40;99.90;;;;;;5051907;28;20076;-73
2024/02/14 06:32:15;;;;;;;9.85;5.55;;;9.50;99.90;;;;;;5052388;28;20072;-73
2024/02/14 06:34:40;;;;;;;11.68;6.32;;;9.70;99.90;;;;;;5034456;28;20041;-76
2024/02/14 06:37:06;;;;;;;12.20;6.30;;;9.60;99.90;;;;;;5034479;28;20099;-74
2024/02/14 06:39:32;;;;;;;13.60;6.22;;;9.60;99.90;;;;;;5052324;28;20534;-73
2024/02/14 06:41:57;;;;;;;15.40;6.30;;;9.70;99.90;;;;;;5052101;28;20082;-75
2024/02/14 06:44:24;;;;;;;13.60;6.72;;;9.60;99.90;;;;;;5051404;28;20041;-74
2024/02/14 06:46:49;;;;;;;19.75;8.25;;;9.70;99.90;;;;;;5051659;28;20036;-73
2024/02/14 06:49:17;;;;;;;19.42;7.97;;;9.70;99.90;;;;;;5051772;28;20033;-73
2024/02/14 06:51:42;;;;;;;20.33;8.10;;;9.60;99.90;;;;;;5033738;28;20477;-76
2024/02/14 06:54:08;;;;;;;18.40;7.60;;;9.60;99.90;;;;;;5052162;28;20044;-74
2024/02/14 06:56:35;;;;;;;16.95;8.70;;;9.80;99.90;;;;;;5052038;28;20600;-73
2024/02/14 06:59:02;;;;;;;19.38;7.68;;;9.80;99.90;;;;;;5051815;28;20082;-76
2024/02/14 07:01:28;;;;;;;20.95;8.85;;;9.90;99.90;;;;;;5051730;28;20049;-75
2024/02/14 07:03:54;;;;;;;26.88;8.35;;;9.80;99.90;;;;;;5051776;28;20044;-75
2024/02/14 07:06:19;;;;;;;20.42;8.13;;;9.80;99.90;;;;;;5033753;28;20044;-72
2024/02/14 07:08:45;;;;;;;25.70;8.90;;;10.00;99.90;;;;;;5051743;28;20404;-73
2024/02/14 07:11:11;;;;;;;21.17;8.35;;;9.60;99.90;;;;;;5051664;28;20572;-76
2024/02/14 07:13:37;;;;;;;24.70;7.95;;;10.00;99.90;;;;;;5051714;28;20037;-75
2024/02/14 07:16:03;;;;;;;20.95;7.82;;;10.00;99.90;;;;;;5033752;28;20456;-73
2024/02/14 07:18:28;;;;;;;20.83;8.93;;;10.00;99.90;;;;;;5033490;28;20067;-73
2024/02/14 07:20:54;;;;;;;27.33;9.35;;;10.00;99.90;;;;;;5033308;28;20083;-73
2024/02/14 07:23:20;;;;;;;27.58;8.38;;;10.10;99.90;;;;;;5051562;28;20040;-73
2024/02/14 07:25:46;;;;;;;22.67;9.68;;;9.90;99.90;;;;;;5033822;28;20124;-76
2024/02/14 07:28:12;;;;;;;29.60;9.50;;;9.90;99.90;;;;;;5033737;28;20136;-73
2024/02/14 07:30:37;;;;;;;29.77;9.25;;;9.70;99.90;;;;;;5052113;28;20496;-73
2024/02/14 07:33:03;;;;;;;29.08;9.88;;;9.80;99.90;;;;;;5034025;28;20484;-74
2024/02/14 07:35:29;;;;;;;29.98;9.43;;;9.90;99.90;;;;;;5033656;28;20067;-74
2024/02/14 07:37:55;;;;;;;40.33;12.15;;;10.10;99.90;;;;;;5051527;28;20033;-74
2024/02/14 07:40:22;;;;;;;50.85;11.75;;;9.80;99.90;;;;;;5051516;28;20048;-74
2024/02/14 07:42:48;;;;;;;34.00;13.05;;;9.80;99.90;;;;;;5051474;28;20036;-73
2024/02/14 07:45:14;;;;;;;49.38;14.82;;;9.80;99.90;;;;;;5051313;28;20408;-74
2024/02/14 07:47:40;;;;;;;37.70;12.00;;;9.90;99.90;;;;;;5050788;28;20424;-74
2024/02/14 07:50:07;;;;;;;41.83;13.30;;;9.90;99.90;;;;;;5033320;28;20049;-73
2024/02/14 07:52:33;;;;;;;41.17;12.43;;;9.90;99.90;;;;;;5051189;28;20044;-73
2024/02/14 07:54:58;;;;;;;48.88;13.27;;;10.20;99.90;;;;;;5051374;28;20037;-73
2024/02/14 07:57:24;;;;;;;46.00;13.40;;;9.90;99.90;;;;;;5051376;28;20029;-73
2024/02/14 07:59:51;;;;;;;40.83;13.88;;;10.20;99.90;;;;;;5033162;28;20049;-73
2024/02/14 08:02:17;;;;;;;43.92;12.70;;;10.20;99.90;;;;;;5051275;28;20087;-73
2024/02/14 08:04:43;;;;;;;49.88;11.93;;;10.30;99.90;;;;;;5053819;28;20044;-72
2024/02/14 08:07:10;;;;;;;46.13;12.60;;;9.90;99.90;;;;;;5055522;28;20094;-73
2024/02/14 08:09:36;;;;;;;48.65;12.35;;;10.00;99.90;;;;;;5051970;28;20704;-75
2024/02/14 08:12:01;;;;;;;46.45;12.52;;;10.10;99.90;;;;;;5054870;28;20040;-74
2024/02/14 08:14:27;;;;;;;48.58;13.15;;;10.30;99.90;;;;;;5055108;28;20033;-73
2024/02/14 08:16:53;;;;;;;43.83;12.70;;;10.30;99.90;;;;;;5054920;28;20504;-73
2024/02/14 08:19:18;;;;;;;45.25;13.93;;;10.20;99.90;;;;;;5054556;28;20041;-73
2024/02/14 08:21:45;;;;;;;50.65;14.45;;;10.20;99.90;;;;;;5054670;28;20044;-73
2024/02/14 08:24:11;;;;;;;44.67;12.13;;;10.10;99.90;;;;;;5054858;28;20116;-73
2024/02/14 08:26:36;;;;;;;44.83;13.35;;;10.20;99.90;;;;;;5054699;28;20186;-73
2024/02/14 08:29:03;;;;;;;36.38;11.57;;;10.10;99.90;;;;;;5053798;28;20423;-74
2024/02/14 08:31:29;;;;;;;40.45;13.73;;;10.40;99.90;;;;;;5054401;28;20048;-76
2024/02/14 08:33:54;;;;;;;38.67;14.13;;;10.20;99.90;;;;;;5036592;28;20040;-77
2024/02/14 08:36:20;;;;;;;47.47;14.80;;;10.60;99.90;;;;;;5036221;28;20063;-77
2024/02/14 08:38:46;;;;;;;31.67;11.43;;;10.70;99.90;;;;;;5036122;28;20032;-76
2024/02/14 08:41:12;;;;;;;30.45;12.77;;;10.40;99.90;;;;;;5035925;28;20044;-77
2024/02/14 08:43:38;;;;;;;41.92;12.55;;;10.60;99.90;;;;;;5036971;28;20526;-78
2024/02/14 08:46:10;;;;;;;49.33;15.15;;;10.70;99.90;;;;;;5032307;28;20073;-76
2024/02/14 08:48:36;;;;;;;38.47;12.10;;;10.90;99.90;;;;;;5054144;28;20045;-73
2024/02/14 08:51:03;;;;;;;43.15;14.02;;;10.80;99.90;;;;;;5053934;28;20060;-73
2024/02/14 08:53:29;;;;;;;35.30;12.50;;;10.40;99.90;;;;;;5019999;28;20036;-73
2024/02/14 08:55:55;;;;;;;33.67;11.25;;;10.60;99.90;;;;;;5054300;28;20048;-73
2024/02/14 08:58:22;;;;;;;36.15;11.75;;;10.50;99.90;;;;;;5054092;28;20059;-73
2024/02/14 09:00:48;;;;;;;33.42;11.60;;;10.70;99.90;;;;;;5053915;28;20044;-73
2024/02/14 09:03:14;;;;;;;39.40;12.35;;;10.50;99.90;;;;;;5036593;28;20041;-73
2024/02/14 09:05:39;;;;;;;29.98;12.32;;;10.70;99.90;;;;;;5054193;28;20041;-73
2024/02/14 09:08:05;;;;;;;24.45;10.82;;;10.50;99.90;;;;;;5054008;28;20040;-73
2024/02/14 09:10:31;;;;;;;30.17;11.00;;;10.80;99.90;;;;;;5035917;28;20405;-73
2024/02/14 09:12:56;;;;;;;24.50;10.43;;;10.80;99.90;;;;;;5053995;28;20041;-72
2024/02/14 09:15:22;;;;;;;26.38;9.60;;;10.60;99.90;;;;;;5034276;28;20120;-72
2024/02/14 09:17:48;;;;;;;28.25;10.18;;;10.60;99.90;;;;;;5053244;28;20103;-72
2024/02/14 09:20:14;;;;;;;20.58;10.80;;;11.00;99.90;;;;;;5053775;28;20101;-72
2024/02/14 09:22:41;;;;;;;21.35;10.18;;;11.00;99.90;;;;;;5053651;28;20033;-72
2024/02/14 09:25:09;;;;;;;24.50;10.85;;;10.80;99.90;;;;;;5053772;28;20331;-72
2024/02/14 09:27:35;;;;;;;23.55;10.60;;;11.10;99.90;;;;;;5053600;28;20041;-72
2024/02/14 09:30:03;;;;;;;26.63;9.52;;;11.00;99.90;;;;;;5053030;28;20408;-72
2024/02/14 09:32:30;;;;;;;25.77;11.38;;;10.80;99.90;;;;;;5053747;28;20048;-72
2024/02/14 09:34:56;;;;;;;23.98;9.55;;;10.90;99.90;;;;;;5053567;28;20037;-72
2024/02/14 09:37:23;;;;;;;24.30;8.93;;;10.90;99.90;;;;;;5053552;28;20056;-72
2024/02/14 09:39:49;;;;;;;23.98;9.48;;;10.80;99.90;;;;;;5035209;28;20112;-72
2024/02/14 09:42:17;;;;;;;24.65;7.97;;;11.10;99.90;;;;;;5053210;28;20124;-72
2024/02/14 09:44:45;;;;;;;23.90;8.50;;;10.90;99.90;;;;;;5052712;28;20048;-72
2024/02/14 09:47:12;;;;;;;22.17;9.05;;;11.00;99.90;;;;;;5052953;28;20044;-73
2024/02/14 09:49:39;;;;;;;21.30;8.02;;;11.20;99.90;;;;;;5052807;28;20416;-73
2024/02/14 09:52:06;;;;;;;26.10;7.68;;;10.90;99.90;;;;;;5034179;28;20094;-73
2024/02/14 09:54:34;;;;;;;20.30;8.82;;;11.10;99.90;;;;;;5049840;28;20036;-73
2024/02/14 09:57:02;;;;;;;20.77;8.48;;;11.30;99.90;;;;;;5034956;28;20048;-73
2024/02/14 09:59:29;;;;;;;19.92;8.55;;;11.30;99.90;;;;;;5034849;28;20043;-73
2024/02/14 10:01:55;;;;;;;22.13;8.45;;;11.10;99.90;;;;;;5035053;28;20392;-73
2024/02/14 10:04:22;;;;;;;27.00;8.95;;;11.30;99.90;;;;;;5053020;28;20040;-73
2024/02/14 10:06:48;;;;;;;26.58;8.10;;;11.30;99.90;;;;;;5035088;28;20120;-73
2024/02/14 10:09:22;;;;;;;19.98;8.75;;;11.10;99.90;;;;;;5034892;28;20044;-73
2024/02/14 10:11:48;;;;;;;19.90;8.45;;;11.10;99.90;;;;;;5034799;28;20052;-73
2024/02/14 10:14:14;;;;;;;24.75;8.30;;;11.10;99.90;;;;;;5034985;28;20052;-74
2024/02/14 10:16:39;;;;;;;22.77;8.52;;;11.10;99.90;;;;;;5034958;28;20037;-73
2024/02/14 10:19:07;;;;;;;23.60;9.07;;;11.20;99.90;;;;;;5052680;28;20025;-74
2024/02/14 10:21:33;;;;;;;20.90;8.90;;;11.40;99.90;;;;;;5034818;28;20049;-73
2024/02/14 10:24:02;;;;;;;25.33;9.65;;;11.30;99.90;;;;;;5052574;28;20432;-73
2024/02/14 10:26:30;;;;;;;23.40;9.27;;;11.00;99.90;;;;;;5052289;28;20125;-74
2024/02/14 10:28:57;;;;;;;25.10;10.98;;;11.20;99.90;;;;;;5077739;22;20071;-75
2024/02/14 10:31:26;;;;;;;27.95;9.00;;;11.00;99.90;;;;;;5061884;28;20056;-74
2024/02/14 10:33:58;;;;;;;20.73;8.80;;;11.20;99.90;;;;;;5062471;28;20041;-74
2024/02/14 10:36:25;;;;;;;21.37;9.73;;;11.40;99.90;;;;;;5062167;28;20051;-74
2024/02/14 10:38:51;;;;;;;19.85;8.00;;;11.30;99.90;;;;;;5036910;28;20087;-75
2024/02/14 10:41:17;;;;;;;17.20;8.57;;;11.20;99.90;;;;;;5041300;28;20061;-74
2024/02/14 10:43:44;;;;;;;17.35;9.30;;;11.10;99.90;;;;;;5043254;28;20513;-74
2024/02/14 10:46:21;;;;;;;17.50;8.75;;;11.50;99.90;;;;;;5042642;28;20048;-75
2024/02/14 10:48:47;;;;;;;19.70;7.18;;;11.30;99.90;;;;;;5041798;28;20056;-74
2024/02/14 10:51:15;;;;;;;13.02;6.90;;;11.50;99.90;;;;;;5043773;28;20095;-75
2024/02/14 10:53:45;;;;;;;12.52;6.90;;;11.20;99.90;;;;;;5037796;28;20060;-78
2024/02/14 10:56:14;;;;;;;12.60;6.47;;;11.40;99.90;;;;;;5033508;28;20041;-78
2024/02/14 10:58:42;;;;;;;14.60;5.43;;;11.20;99.90;;;;;;5036334;28;20048;-78
2024/02/14 11:01:09;;;;;;;8.95;5.05;;;11.40;99.90;;;;;;5038341;28;20041;-78
2024/02/14 11:03:35;;;;;;;11.52;4.95;;;11.10;99.90;;;;;;5033846;28;20041;-77
2024/02/14 11:06:03;;;;;;;8.88;4.55;;;11.40;99.90;;;;;;5018494;28;20076;-77
2024/02/14 11:08:32;;;;;;;9.70;4.38;;;11.40;99.90;;;;;;5016558;28;20041;-74
2024/02/14 11:10:59;;;;;;;6.30;3.70;;;11.20;99.90;;;;;;5023791;28;20049;-74
2024/02/14 11:13:30;;;;;;;6.75;3.92;;;11.20;99.90;;;;;;5018602;28;20120;-74
2024/02/14 11:16:00;;;;;;;8.35;3.83;;;11.50;99.90;;;;;;5015885;28;20030;-74
2024/02/14 11:18:27;;;;;;;5.97;4.10;;;11.40;99.90;;;;;;5015344;28;20049;-75
2024/02/14 11:20:52;;;;;;;6.55;4.82;;;11.30;99.90;;;;;;4993533;28;20042;-73
2024/02/14 11:23:26;;;;;;;7.93;5.38;;;11.30;99.90;;;;;;5015112;28;20544;-74
2024/02/14 11:26:00;;;;;;;7.15;5.32;;;11.30;99.90;;;;;;5015845;28;20044;-74
2024/02/14 11:28:27;;;;;;;7.88;5.00;;;11.60;99.90;;;;;;5016064;28;20041;-74
2024/02/14 11:31:00;;;;;;;7.15;4.68;;;11.70;99.90;;;;;;5015322;28;20048;-74
2024/02/14 11:33:26;;;;;;;7.28;4.43;;;11.70;99.90;;;;;;5015434;28;20037;-73
2024/02/14 11:35:55;;;;;;;7.88;4.63;;;11.70;99.90;;;;;;5032354;28;20036;-74
2024/02/14 11:38:21;;;;;;;7.25;4.85;;;11.50;99.90;;;;;;5021977;28;20421;-75
2024/02/14 11:40:49;;;;;;;10.95;6.00;;;11.90;99.90;;;;;;5031644;28;20041;-73
2024/02/14 11:43:20;;;;;;;8.23;5.25;;;11.90;99.90;;;;;;5032207;28;20045;-74
2024/02/14 11:45:49;;;;;;;8.43;4.90;;;11.50;99.90;;;;;;5015052;28;21563;-74
2024/02/14 11:48:16;;;;;;;8.95;4.90;;;11.70;99.90;;;;;;5012227;28;20040;-73
2024/02/14 11:50:47;;;;;;;7.97;5.30;;;11.90;99.90;;;;;;5031732;28;20516;-73
2024/02/14 11:53:16;;;;;;;8.20;4.97;;;11.90;99.90;;;;;;5032665;28;20539;-74
2024/02/14 11:55:42;;;;;;;7.78;5.03;;;11.70;99.90;;;;;;5032617;28;20041;-74
2024/02/14 11:58:13;;;;;;;7.85;5.10;;;12.00;99.90;;;;;;5032985;28;20042;-74
2024/02/14 12:00:40;;;;;;;6.78;4.65;;;11.70;99.90;;;;;;5014817;28;20045;-73
2024/02/14 12:03:18;;;;;;;8.82;4.75;;;11.70;99.90;;;;;;5015616;28;20472;-74
2024/02/14 12:05:47;;;;;;;7.30;4.93;;;12.00;99.90;;;;;;5033059;28;20471;-75
2024/02/14 12:08:14;;;;;;;7.57;4.95;;;11.70;99.90;;;;;;5032953;28;20049;-74
2024/02/14 12:10:43;;;;;;;9.77;5.90;;;12.00;99.90;;;;;;5033434;28;20038;-73
2024/02/14 12:13:11;;;;;;;9.32;5.82;;;12.00;99.90;;;;;;5032200;28;20401;-73
2024/02/14 12:15:41;;;;;;;12.15;6.28;;;11.70;99.90;;;;;;5032552;28;20037;-73
2024/02/14 12:18:09;;;;;;;10.82;6.68;;;11.90;99.90;;;;;;5014688;28;20037;-73
2024/02/14 12:20:36;;;;;;;11.55;6.68;;;12.10;99.90;;;;;;5014421;28;20433;-74
2024/02/14 12:23:02;;;;;;;11.18;7.15;;;11.80;99.90;;;;;;5033158;28;20042;-74
2024/02/14 12:25:28;;;;;;;11.23;7.35;;;12.00;99.90;;;;;;5033718;28;20095;-74
2024/02/14 12:27:56;;;;;;;14.27;7.43;;;11.90;99.90;;;;;;4997829;28;20052;-74
2024/02/14 12:30:22;;;;;;;10.55;7.55;;;12.20;99.90;;;;;;4998145;28;20045;-73
2024/02/14 12:33:07;;;;;;;13.90;7.68;;;12.00;99.90;;;;;;5014719;28;20040;-74
2024/02/14 12:35:35;;;;;;;13.68;7.82;;;11.90;99.90;;;;;;4996064;28;20607;-74
2024/02/14 12:38:01;;;;;;;9.65;7.20;;;12.10;99.90;;;;;;5013708;28;20040;-73
2024/02/14 12:40:28;;;;;;;11.02;7.53;;;11.90;99.90;;;;;;5014513;28;20033;-74
2024/02/14 12:42:54;;;;;;;13.15;8.32;;;11.80;99.90;;;;;;5031722;28;20436;-74